sensor_id;sensor_type;location;lat;lon;timestamp;pressure;altitude;pressure_sealevel;temperature;humidity
21594;BME280;10959;51.328;7.322;2023-05-01T00:00:18;74470.59;;;-147.06;48.39
21594;BME280;10959;51.328;7.322;2023-05-01T00:02:45;74466.50;;;-147.06;48.40
21594;BME280;10959;51.328;7.322;2023-05-01T00:05:12;74472.66;;;-147.06;48.39
21594;BME280;10959;51.328;7.322;2023-05-01T00:07:38;74474.69;;;-147.06;48.42
21594;BME280;10959;51.328;7.322;2023-05-01T00:10:06;74474.69;;;-147.06;48.56
21594;BME280;10959;51.328;7.322;2023-05-01T00:12:32;74474.69;;;-147.06;48.61
21594;BME280;10959;51.328;7.322;2023-05-01T00:14:59;74478.81;;;-147.06;48.52
21594;BME280;10959;51.328;7.322;2023-05-01T00:17:25;74487.00;;;-147.06;48.64
21594;BME280;10959;51.328;7.322;2023-05-01T00:19:53;74482.91;;;-147.06;48.63
21594;BME280;10959;51.328;7.322;2023-05-01T00:22:21;74487.00;;;-147.06;48.68
21594;BME280;10959;51.328;7.322;2023-05-01T00:24:47;74487.00;;;-147.06;48.74
21594;BME280;10959;51.328;7.322;2023-05-01T00:27:14;74480.84;;;-147.06;48.70
21594;BME280;10959;51.328;7.322;2023-05-01T00:29:41;74482.91;;;-147.06;48.68
21594;BME280;10959;51.328;7.322;2023-05-01T00:32:07;74489.03;;;-147.06;48.38
21594;BME280;10959;51.328;7.322;2023-05-01T00:34:34;74480.84;;;-147.06;48.40
21594;BME280;10959;51.328;7.322;2023-05-01T00:37:02;74476.75;;;-147.06;48.15
21594;BME280;10959;51.328;7.322;2023-05-01T00:39:28;74474.69;;;-147.06;48.05
21594;BME280;10959;51.328;7.322;2023-05-01T00:41:55;74472.66;;;-147.06;48.08
21594;BME280;10959;51.328;7.322;2023-05-01T00:44:21;74470.59;;;-147.06;48.01
21594;BME280;10959;51.328;7.322;2023-05-01T00:46:48;74472.66;;;-147.06;47.87
21594;BME280;10959;51.328;7.322;2023-05-01T00:49:15;74464.47;;;-147.06;47.85
21594;BME280;10959;51.328;7.322;2023-05-01T00:51:42;74466.50;;;-147.06;47.87
21594;BME280;10959;51.328;7.322;2023-05-01T00:54:10;74468.56;;;-147.06;47.82
21594;BME280;10959;51.328;7.322;2023-05-01T00:56:37;74470.59;;;-147.06;47.78
21594;BME280;10959;51.328;7.322;2023-05-01T00:59:03;74470.59;;;-147.06;47.86
21594;BME280;10959;51.328;7.322;2023-05-01T01:01:30;74462.41;;;-147.06;47.86
21594;BME280;10959;51.328;7.322;2023-05-01T01:03:58;74462.41;;;-147.06;47.64
21594;BME280;10959;51.328;7.322;2023-05-01T01:06:32;74470.59;;;-147.06;47.55
21594;BME280;10959;51.328;7.322;2023-05-01T01:09:06;74468.56;;;-147.06;47.38
21594;BME280;10959;51.328;7.322;2023-05-01T01:11:48;74468.56;;;-147.06;47.31
21594;BME280;10959;51.328;7.322;2023-05-01T01:14:24;74446.03;;;-147.06;47.41
21594;BME280;10959;51.328;7.322;2023-05-01T01:16:56;74452.16;;;-147.06;47.50
21594;BME280;10959;51.328;7.322;2023-05-01T01:19:47;74478.81;;;-147.06;47.53
21594;BME280;10959;51.328;7.322;2023-05-01T01:22:22;74458.31;;;-147.06;47.39
21594;BME280;10959;51.328;7.322;2023-05-01T01:25:26;74487.00;;;-147.06;47.54
21594;BME280;10959;51.328;7.322;2023-05-01T01:28:06;74460.38;;;-147.06;47.29
21594;BME280;10959;51.328;7.322;2023-05-01T01:31:09;74482.91;;;-147.06;47.67
21594;BME280;10959;51.328;7.322;2023-05-01T01:34:01;74489.03;;;-147.06;47.65
21594;BME280;10959;51.328;7.322;2023-05-01T01:36:40;74478.81;;;-147.06;47.41
21594;BME280;10959;51.328;7.322;2023-05-01T01:39:13;74456.25;;;-147.06;47.36
21594;BME280;10959;51.328;7.322;2023-05-01T01:41:47;74452.16;;;-147.06;47.42
21594;BME280;10959;51.328;7.322;2023-05-01T01:44:16;74439.88;;;-147.06;47.47
21594;BME280;10959;51.328;7.322;2023-05-01T01:46:45;74437.81;;;-147.06;47.43
21594;BME280;10959;51.328;7.322;2023-05-01T01:49:18;74450.13;;;-147.06;47.53
21594;BME280;10959;51.328;7.322;2023-05-01T01:51:46;74441.94;;;-147.06;47.59
21594;BME280;10959;51.328;7.322;2023-05-01T01:54:16;74441.94;;;-147.06;47.64
21594;BME280;10959;51.328;7.322;2023-05-01T01:56:45;74439.88;;;-147.06;47.64
21594;BME280;10959;51.328;7.322;2023-05-01T01:59:14;74437.81;;;-147.06;47.82
21594;BME280;10959;51.328;7.322;2023-05-01T02:01:42;74433.72;;;-147.06;47.85
21594;BME280;10959;51.328;7.322;2023-05-01T02:04:10;74429.63;;;-147.06;47.64
21594;BME280;10959;51.328;7.322;2023-05-01T02:06:40;74437.81;;;-147.06;47.64
21594;BME280;10959;51.328;7.322;2023-05-01T02:09:08;74429.63;;;-147.06;47.89
21594;BME280;10959;51.328;7.322;2023-05-01T02:11:36;74425.53;;;-147.06;47.86
21594;BME280;10959;51.328;7.322;2023-05-01T02:14:04;74421.44;;;-147.06;47.74
21594;BME280;10959;51.328;7.322;2023-05-01T02:16:33;74425.53;;;-147.06;47.73
21594;BME280;10959;51.328;7.322;2023-05-01T02:19:01;74425.53;;;-147.06;47.79
21594;BME280;10959;51.328;7.322;2023-05-01T02:21:29;74425.53;;;-147.06;47.90
21594;BME280;10959;51.328;7.322;2023-05-01T02:23:59;74433.72;;;-147.06;47.81
21594;BME280;10959;51.328;7.322;2023-05-01T02:26:27;74425.53;;;-147.06;47.96
21594;BME280;10959;51.328;7.322;2023-05-01T02:28:54;74423.47;;;-147.06;48.04
21594;BME280;10959;51.328;7.322;2023-05-01T02:31:21;74419.38;;;-147.06;47.71
21594;BME280;10959;51.328;7.322;2023-05-01T02:33:48;74421.44;;;-147.06;48.16
21594;BME280;10959;51.328;7.322;2023-05-01T02:36:14;74413.25;;;-147.06;48.01
21594;BME280;10959;51.328;7.322;2023-05-01T02:38:40;74417.34;;;-147.06;48.01
21594;BME280;10959;51.328;7.322;2023-05-01T02:41:09;74411.19;;;-147.06;47.98
21594;BME280;10959;51.328;7.322;2023-05-01T02:43:38;74403.00;;;-147.06;48.11
21594;BME280;10959;51.328;7.322;2023-05-01T02:46:06;74409.16;;;-147.06;48.13
21594;BME280;10959;51.328;7.322;2023-05-01T02:48:36;74413.25;;;-147.06;48.08
21594;BME280;10959;51.328;7.322;2023-05-01T02:51:04;74400.94;;;-147.06;47.95
21594;BME280;10959;51.328;7.322;2023-05-01T02:53:32;74396.84;;;-147.06;48.03
21594;BME280;10959;51.328;7.322;2023-05-01T02:55:59;74388.66;;;-147.06;48.03
21594;BME280;10959;51.328;7.322;2023-05-01T02:58:29;74392.75;;;-147.06;47.97
21594;BME280;10959;51.328;7.322;2023-05-01T03:00:56;74396.84;;;-147.06;48.04
21594;BME280;10959;51.328;7.322;2023-05-01T03:03:22;74378.41;;;-147.06;47.91
21594;BME280;10959;51.328;7.322;2023-05-01T03:05:49;74378.41;;;-147.06;48.01
21594;BME280;10959;51.328;7.322;2023-05-01T03:08:16;74368.16;;;-147.06;47.90
21594;BME280;10959;51.328;7.322;2023-05-01T03:10:42;74366.13;;;-147.06;47.85
21594;BME280;10959;51.328;7.322;2023-05-01T03:13:09;74359.97;;;-147.06;48.01
21594;BME280;10959;51.328;7.322;2023-05-01T03:15:37;74347.69;;;-147.06;47.71
21594;BME280;10959;51.328;7.322;2023-05-01T03:18:03;74351.78;;;-147.06;47.92
21594;BME280;10959;51.328;7.322;2023-05-01T03:20:30;74349.72;;;-147.06;47.77
21594;BME280;10959;51.328;7.322;2023-05-01T03:22:58;74349.72;;;-147.06;47.94
21594;BME280;10959;51.328;7.322;2023-05-01T03:25:24;74339.47;;;-147.06;47.89
21594;BME280;10959;51.328;7.322;2023-05-01T03:27:51;74343.59;;;-147.06;48.03
21594;BME280;10959;51.328;7.322;2023-05-01T03:30:17;74333.34;;;-147.06;47.98
21594;BME280;10959;51.328;7.322;2023-05-01T03:32:45;74331.28;;;-147.06;48.09
21594;BME280;10959;51.328;7.322;2023-05-01T03:35:12;74319.00;;;-147.06;48.12
21594;BME280;10959;51.328;7.322;2023-05-01T03:37:38;74314.91;;;-147.06;48.00
21594;BME280;10959;51.328;7.322;2023-05-01T03:40:06;74314.91;;;-147.06;47.87
21594;BME280;10959;51.328;7.322;2023-05-01T03:42:32;74312.84;;;-147.06;47.98
21594;BME280;10959;51.328;7.322;2023-05-01T03:44:59;74306.72;;;-147.06;47.78
21594;BME280;10959;51.328;7.322;2023-05-01T03:47:25;74306.72;;;-147.06;47.70
21594;BME280;10959;51.328;7.322;2023-05-01T03:49:53;74302.59;;;-147.06;47.89
21594;BME280;10959;51.328;7.322;2023-05-01T03:52:19;74300.56;;;-147.06;47.77
21594;BME280;10959;51.328;7.322;2023-05-01T03:54:46;74296.47;;;-147.06;47.77
21594;BME280;10959;51.328;7.322;2023-05-01T03:57:12;74290.31;;;-147.06;47.73
21594;BME280;10959;51.328;7.322;2023-05-01T03:59:39;74292.38;;;-147.06;47.74
21594;BME280;10959;51.328;7.322;2023-05-01T04:02:08;74298.50;;;-147.06;47.66
21594;BME280;10959;51.328;7.322;2023-05-01T04:04:34;74294.41;;;-147.06;47.75
21594;BME280;10959;51.328;7.322;2023-05-01T04:07:02;74290.31;;;-147.06;47.47
21594;BME280;10959;51.328;7.322;2023-05-01T04:09:29;74290.31;;;-147.06;47.75
21594;BME280;10959;51.328;7.322;2023-05-01T04:11:55;74286.22;;;-147.06;47.59
21594;BME280;10959;51.328;7.322;2023-05-01T04:14:21;74282.13;;;-147.06;47.56
21594;BME280;10959;51.328;7.322;2023-05-01T04:16:48;74273.94;;;-147.06;47.46
21594;BME280;10959;51.328;7.322;2023-05-01T04:19:15;74273.94;;;-147.06;47.42
21594;BME280;10959;51.328;7.322;2023-05-01T04:21:41;74265.72;;;-147.06;47.22
21594;BME280;10959;51.328;7.322;2023-05-01T04:24:09;74269.81;;;-147.06;47.40
21594;BME280;10959;51.328;7.322;2023-05-01T04:26:35;74269.81;;;-147.06;47.28
21594;BME280;10959;51.328;7.322;2023-05-01T04:29:03;74265.72;;;-147.06;47.45
21594;BME280;10959;51.328;7.322;2023-05-01T04:31:30;74261.63;;;-147.06;47.36
21594;BME280;10959;51.328;7.322;2023-05-01T04:33:56;74261.63;;;-147.06;47.46
21594;BME280;10959;51.328;7.322;2023-05-01T04:36:22;74261.63;;;-147.06;47.20
21594;BME280;10959;51.328;7.322;2023-05-01T04:38:49;74257.53;;;-147.06;47.20
21594;BME280;10959;51.328;7.322;2023-05-01T04:41:17;74261.63;;;-147.06;47.20
21594;BME280;10959;51.328;7.322;2023-05-01T04:43:43;74257.53;;;-147.06;47.12
21594;BME280;10959;51.328;7.322;2023-05-01T04:46:10;74253.44;;;-147.06;47.09
21594;BME280;10959;51.328;7.322;2023-05-01T04:48:36;74249.34;;;-147.06;47.23
21594;BME280;10959;51.328;7.322;2023-05-01T04:51:02;74247.28;;;-147.06;47.08
21594;BME280;10959;51.328;7.322;2023-05-01T04:53:29;74249.34;;;-147.06;47.10
21594;BME280;10959;51.328;7.322;2023-05-01T04:55:56;74241.16;;;-147.06;46.95
21594;BME280;10959;51.328;7.322;2023-05-01T04:58:24;74237.06;;;-147.06;46.86
21594;BME280;10959;51.328;7.322;2023-05-01T05:00:50;74241.16;;;-147.06;46.87
21594;BME280;10959;51.328;7.322;2023-05-01T05:03:17;74237.06;;;-147.06;46.87
21594;BME280;10959;51.328;7.322;2023-05-01T05:05:43;74224.75;;;-147.06;46.64
21594;BME280;10959;51.328;7.322;2023-05-01T05:08:10;74224.75;;;-147.06;46.57
21594;BME280;10959;51.328;7.322;2023-05-01T05:10:37;74224.75;;;-147.06;46.81
21594;BME280;10959;51.328;7.322;2023-05-01T05:13:03;74224.75;;;-147.06;46.64
21594;BME280;10959;51.328;7.322;2023-05-01T05:15:31;74220.66;;;-147.06;46.67
21594;BME280;10959;51.328;7.322;2023-05-01T05:17:57;74216.56;;;-147.06;46.64
21594;BME280;10959;51.328;7.322;2023-05-01T05:20:24;74204.28;;;-147.06;46.77
21594;BME280;10959;51.328;7.322;2023-05-01T05:22:50;74210.41;;;-147.06;46.89
21594;BME280;10959;51.328;7.322;2023-05-01T05:25:17;74200.19;;;-147.06;46.82
21594;BME280;10959;51.328;7.322;2023-05-01T05:27:44;74200.19;;;-147.06;46.74
21594;BME280;10959;51.328;7.322;2023-05-01T05:30:11;74194.03;;;-147.06;46.51
21594;BME280;10959;51.328;7.322;2023-05-01T05:32:38;74185.84;;;-147.06;46.46
21594;BME280;10959;51.328;7.322;2023-05-01T05:35:05;74181.72;;;-147.06;46.57
21594;BME280;10959;51.328;7.322;2023-05-01T05:37:32;74175.59;;;-147.06;46.70
21594;BME280;10959;51.328;7.322;2023-05-01T05:39:59;74175.59;;;-147.06;46.56
21594;BME280;10959;51.328;7.322;2023-05-01T05:42:25;74167.41;;;-147.06;46.45
21594;BME280;10959;51.328;7.322;2023-05-01T05:44:51;74146.91;;;-147.06;46.52
21594;BME280;10959;51.328;7.322;2023-05-01T05:47:18;74146.91;;;-147.06;46.57
21594;BME280;10959;51.328;7.322;2023-05-01T05:49:46;74138.72;;;-147.06;46.64
21594;BME280;10959;51.328;7.322;2023-05-01T05:52:12;74142.81;;;-147.06;46.60
21594;BME280;10959;51.328;7.322;2023-05-01T05:54:39;74130.53;;;-147.06;46.75
21594;BME280;10959;51.328;7.322;2023-05-01T05:57:05;74126.41;;;-147.06;46.42
21594;BME280;10959;51.328;7.322;2023-05-01T05:59:32;74124.38;;;-147.06;46.11
21594;BME280;10959;51.328;7.322;2023-05-01T06:01:58;74114.13;;;-147.06;46.41
21594;BME280;10959;51.328;7.322;2023-05-01T06:04:25;74105.94;;;-147.06;45.98
21594;BME280;10959;51.328;7.322;2023-05-01T06:06:53;74097.75;;;-147.06;46.22
21594;BME280;10959;51.328;7.322;2023-05-01T06:09:19;74093.66;;;-147.06;46.04
21594;BME280;10959;51.328;7.322;2023-05-01T06:11:46;74073.16;;;-147.06;46.13
21594;BME280;10959;51.328;7.322;2023-05-01T06:14:12;74077.25;;;-147.06;46.32
21594;BME280;10959;51.328;7.322;2023-05-01T06:16:39;74064.97;;;-147.06;46.08
21594;BME280;10959;51.328;7.322;2023-05-01T06:19:05;74052.66;;;-147.06;45.73
21594;BME280;10959;51.328;7.322;2023-05-01T06:21:34;74044.47;;;-147.06;45.92
21594;BME280;10959;51.328;7.322;2023-05-01T06:24:02;74036.28;;;-147.06;45.61
21594;BME280;10959;51.328;7.322;2023-05-01T06:26:28;74026.03;;;-147.06;45.82
21594;BME280;10959;51.328;7.322;2023-05-01T06:28:55;74007.59;;;-147.06;45.95
21594;BME280;10959;51.328;7.322;2023-05-01T06:31:21;73997.34;;;-147.06;45.97
21594;BME280;10959;51.328;7.322;2023-05-01T06:33:48;73983.03;;;-147.06;45.59
21594;BME280;10959;51.328;7.322;2023-05-01T06:36:14;73983.03;;;-147.06;45.62
21594;BME280;10959;51.328;7.322;2023-05-01T06:38:41;73966.63;;;-147.06;45.47
21594;BME280;10959;51.328;7.322;2023-05-01T06:41:14;73962.53;;;-147.06;45.31
21594;BME280;10959;51.328;7.322;2023-05-01T06:43:40;73946.16;;;-147.06;45.48
21594;BME280;10959;51.328;7.322;2023-05-01T06:46:07;73929.75;;;-147.06;45.26
21594;BME280;10959;51.328;7.322;2023-05-01T06:48:33;73915.41;;;-147.06;45.32
21594;BME280;10959;51.328;7.322;2023-05-01T06:50:59;73896.97;;;-147.06;45.27
21594;BME280;10959;51.328;7.322;2023-05-01T06:53:26;73882.63;;;-147.06;45.50
21594;BME280;10959;51.328;7.322;2023-05-01T06:55:52;73868.31;;;-147.06;44.78
21594;BME280;10959;51.328;7.322;2023-05-01T06:58:20;73847.81;;;-147.06;44.60
21594;BME280;10959;51.328;7.322;2023-05-01T07:00:46;73847.81;;;-147.06;44.60
21594;BME280;10959;51.328;7.322;2023-05-01T07:03:13;73831.44;;;-147.06;44.50
21594;BME280;10959;51.328;7.322;2023-05-01T07:05:40;73819.13;;;-147.06;44.72
21594;BME280;10959;51.328;7.322;2023-05-01T07:08:06;73810.94;;;-147.06;44.75
21594;BME280;10959;51.328;7.322;2023-05-01T07:10:33;73802.75;;;-147.06;44.76
21594;BME280;10959;51.328;7.322;2023-05-01T07:13:00;73786.38;;;-147.06;44.72
21594;BME280;10959;51.328;7.322;2023-05-01T07:22:06;73745.41;;;-147.06;44.18
21594;BME280;10959;51.328;7.322;2023-05-01T07:24:34;73733.09;;;-147.06;44.02
21594;BME280;10959;51.328;7.322;2023-05-01T07:27:03;73712.63;;;-147.06;43.46
21594;BME280;10959;51.328;7.322;2023-05-01T07:29:30;73704.44;;;-147.06;43.62
21594;BME280;10959;51.328;7.322;2023-05-01T07:32:05;73700.31;;;-147.06;42.38
21594;BME280;10959;51.328;7.322;2023-05-01T07:34:32;73692.13;;;-147.06;42.50
21594;BME280;10959;51.328;7.322;2023-05-01T07:36:59;73688.03;;;-147.06;42.35
21594;BME280;10959;51.328;7.322;2023-05-01T07:39:30;73688.03;;;-147.06;42.12
21594;BME280;10959;51.328;7.322;2023-05-01T07:41:59;73671.66;;;-147.06;41.82
21594;BME280;10959;51.328;7.322;2023-05-01T07:44:26;73675.75;;;-147.06;41.38
21594;BME280;10959;51.328;7.322;2023-05-01T07:47:02;73655.25;;;-147.06;41.92
21594;BME280;10959;51.328;7.322;2023-05-01T07:49:34;73630.69;;;-147.06;42.08
21594;BME280;10959;51.328;7.322;2023-05-01T07:52:01;73608.16;;;-147.06;41.97
21594;BME280;10959;51.328;7.322;2023-05-01T08:07:43;73532.38;;;-147.06;40.80
21594;BME280;10959;51.328;7.322;2023-05-01T08:10:21;73511.88;;;-147.06;40.72
21594;BME280;10959;51.328;7.322;2023-05-01T08:13:01;73495.50;;;-147.06;40.11
21594;BME280;10959;51.328;7.322;2023-05-01T08:15:28;73495.50;;;-147.06;40.07
21594;BME280;10959;51.328;7.322;2023-05-01T08:17:54;73487.31;;;-147.06;39.90
21594;BME280;10959;51.328;7.322;2023-05-01T08:20:21;73479.09;;;-147.06;39.66
21594;BME280;10959;51.328;7.322;2023-05-01T08:22:49;73460.66;;;-147.06;40.00
21594;BME280;10959;51.328;7.322;2023-05-01T08:25:15;73438.13;;;-147.06;39.57
21594;BME280;10959;51.328;7.322;2023-05-01T08:27:42;73403.31;;;-147.06;39.44
21594;BME280;10959;51.328;7.322;2023-05-01T08:30:09;73368.50;;;-147.06;39.56
21594;BME280;10959;51.328;7.322;2023-05-01T08:32:36;73345.97;;;-147.06;38.36
21594;BME280;10959;51.328;7.322;2023-05-01T08:35:02;73323.44;;;-147.06;38.50
21594;BME280;10959;51.328;7.322;2023-05-01T08:37:29;73315.25;;;-147.06;38.14
21594;BME280;10959;51.328;7.322;2023-05-01T08:39:57;73298.84;;;-147.06;38.62
21594;BME280;10959;51.328;7.322;2023-05-01T08:42:24;73245.59;;;-147.06;38.64
21594;BME280;10959;51.328;7.322;2023-05-01T08:44:52;73216.94;;;-147.06;37.80
21594;BME280;10959;51.328;7.322;2023-05-01T08:47:20;73155.50;;;-147.06;38.08
21594;BME280;10959;51.328;7.322;2023-05-01T08:49:49;73114.53;;;-147.06;38.29
21594;BME280;10959;51.328;7.322;2023-05-01T08:52:16;73069.47;;;-147.06;37.25
21594;BME280;10959;51.328;7.322;2023-05-01T08:54:44;73028.50;;;-147.06;37.44
21594;BME280;10959;51.328;7.322;2023-05-01T08:57:13;72991.63;;;-147.06;36.64
21594;BME280;10959;51.328;7.322;2023-05-01T08:59:39;72958.88;;;-147.06;36.62
21594;BME280;10959;51.328;7.322;2023-05-01T09:02:07;72930.19;;;-147.06;36.77
21594;BME280;10959;51.328;7.322;2023-05-01T09:04:35;72907.66;;;-147.06;36.43
21594;BME280;10959;51.328;7.322;2023-05-01T09:07:02;72876.94;;;-147.06;36.31
21594;BME280;10959;51.328;7.322;2023-05-01T09:09:30;72860.56;;;-147.06;35.88
21594;BME280;10959;51.328;7.322;2023-05-01T09:12:00;72858.50;;;-147.06;35.70
21594;BME280;10959;51.328;7.322;2023-05-01T09:14:30;72868.75;;;-147.06;35.67
21594;BME280;10959;51.328;7.322;2023-05-01T09:16:56;72881.03;;;-147.06;35.13
21594;BME280;10959;51.328;7.322;2023-05-01T09:19:23;72881.03;;;-147.06;35.40
21594;BME280;10959;51.328;7.322;2023-05-01T09:21:50;72876.94;;;-147.06;35.62
21594;BME280;10959;51.328;7.322;2023-05-01T09:24:18;72848.28;;;-147.06;35.02
21594;BME280;10959;51.328;7.322;2023-05-01T09:26:44;72848.28;;;-147.06;34.89
21594;BME280;10959;51.328;7.322;2023-05-01T09:29:11;72852.38;;;-147.06;33.81
21594;BME280;10959;51.328;7.322;2023-05-01T09:31:40;72844.19;;;-147.06;34.25
21594;BME280;10959;51.328;7.322;2023-05-01T09:34:06;72823.69;;;-147.06;34.45
21594;BME280;10959;51.328;7.322;2023-05-01T09:36:33;72803.22;;;-147.06;34.43
21594;BME280;10959;51.328;7.322;2023-05-01T09:39:02;72815.50;;;-147.06;33.61
21594;BME280;10959;51.328;7.322;2023-05-01T09:41:29;72807.31;;;-147.06;33.98
21594;BME280;10959;51.328;7.322;2023-05-01T09:43:57;72790.94;;;-147.06;34.59
21594;BME280;10959;51.328;7.322;2023-05-01T09:46:25;72766.34;;;-147.06;33.99
21594;BME280;10959;51.328;7.322;2023-05-01T09:48:54;72758.16;;;-147.06;33.77
21594;BME280;10959;51.328;7.322;2023-05-01T09:51:24;72754.06;;;-147.06;31.93
21594;BME280;10959;51.328;7.322;2023-05-01T09:53:54;72770.47;;;-147.06;33.70
21594;BME280;10959;51.328;7.322;2023-05-01T09:56:21;72749.97;;;-147.06;33.75
21594;BME280;10959;51.328;7.322;2023-05-01T09:58:49;72717.22;;;-147.06;33.66
21594;BME280;10959;51.328;7.322;2023-05-01T10:01:16;72684.44;;;-147.06;33.65
21594;BME280;10959;51.328;7.322;2023-05-01T10:03:43;72643.47;;;-147.06;33.28
21594;BME280;10959;51.328;7.322;2023-05-01T10:06:25;72668.06;;;-147.06;33.39
21594;BME280;10959;51.328;7.322;2023-05-01T10:08:52;72655.78;;;-147.06;32.70
21594;BME280;10959;51.328;7.322;2023-05-01T10:11:19;72643.47;;;-147.06;32.98
21594;BME280;10959;51.328;7.322;2023-05-01T10:14:03;72647.56;;;-147.06;32.86
21594;BME280;10959;51.328;7.322;2023-05-01T10:16:32;72649.63;;;-147.06;30.67
21594;BME280;10959;51.328;7.322;2023-05-01T10:18:59;72645.53;;;-147.06;32.29
21594;BME280;10959;51.328;7.322;2023-05-01T10:21:27;72610.72;;;-147.06;31.97
21594;BME280;10959;51.328;7.322;2023-05-01T10:23:54;72577.94;;;-147.06;32.98
21594;BME280;10959;51.328;7.322;2023-05-01T10:26:21;72557.47;;;-147.06;32.43
21594;BME280;10959;51.328;7.322;2023-05-01T10:28:50;72561.56;;;-147.06;32.10
21594;BME280;10959;51.328;7.322;2023-05-01T10:31:17;72598.44;;;-147.06;31.83
21594;BME280;10959;51.328;7.322;2023-05-01T10:33:44;72629.16;;;-147.06;30.64
21594;BME280;10959;51.328;7.322;2023-05-01T10:36:16;72680.34;;;-147.06;31.33
21594;BME280;10959;51.328;7.322;2023-05-01T10:38:47;72684.44;;;-147.06;32.20
21594;BME280;10959;51.328;7.322;2023-05-01T10:41:14;72688.53;;;-147.06;32.19
21594;BME280;10959;51.328;7.322;2023-05-01T10:43:41;72688.53;;;-147.06;32.06
21594;BME280;10959;51.328;7.322;2023-05-01T10:46:27;72717.22;;;-147.06;32.41
21594;BME280;10959;51.328;7.322;2023-05-01T10:48:56;72700.81;;;-147.06;32.63
21594;BME280;10959;51.328;7.322;2023-05-01T10:51:24;72694.69;;;-147.06;32.59
21594;BME280;10959;51.328;7.322;2023-05-01T10:54:24;72725.41;;;-147.06;31.69
21594;BME280;10959;51.328;7.322;2023-05-01T10:56:51;72754.06;;;-147.06;30.78
21594;BME280;10959;51.328;7.322;2023-05-01T10:59:18;72795.03;;;-147.06;30.80
21594;BME280;10959;51.328;7.322;2023-05-01T11:01:46;72872.84;;;-147.06;30.31
21594;BME280;10959;51.328;7.322;2023-05-01T11:04:44;72922.00;;;-147.06;31.40
21594;BME280;10959;51.328;7.322;2023-05-01T11:07:13;72922.00;;;-147.06;31.03
21594;BME280;10959;51.328;7.322;2023-05-01T11:09:44;72930.19;;;-147.06;31.54
21594;BME280;10959;51.328;7.322;2023-05-01T11:12:12;72942.50;;;-147.06;31.05
21594;BME280;10959;51.328;7.322;2023-05-01T11:15:00;72979.34;;;-147.06;32.16
21594;BME280;10959;51.328;7.322;2023-05-01T11:17:44;72967.06;;;-147.06;32.08
21594;BME280;10959;51.328;7.322;2023-05-01T11:20:11;72950.69;;;-147.06;31.25
21594;BME280;10959;51.328;7.322;2023-05-01T11:22:40;72967.06;;;-147.06;31.68
21594;BME280;10959;51.328;7.322;2023-05-01T11:25:19;72977.31;;;-147.06;32.57
21594;BME280;10959;51.328;7.322;2023-05-01T11:27:46;72958.88;;;-147.06;32.82
21594;BME280;10959;51.328;7.322;2023-05-01T11:30:13;72942.50;;;-147.06;32.69
21594;BME280;10959;51.328;7.322;2023-05-01T11:32:42;72934.28;;;-147.06;32.62
21594;BME280;10959;51.328;7.322;2023-05-01T11:35:16;72954.78;;;-147.06;31.87
21594;BME280;10959;51.328;7.322;2023-05-01T11:37:43;72942.50;;;-147.06;32.49
21594;BME280;10959;51.328;7.322;2023-05-01T11:40:22;73001.88;;;-147.06;32.29
21594;BME280;10959;51.328;7.322;2023-05-01T11:42:51;72967.06;;;-147.06;33.13
21594;BME280;10959;51.328;7.322;2023-05-01T11:45:24;72958.88;;;-147.06;32.69
21594;BME280;10959;51.328;7.322;2023-05-01T11:47:52;72975.25;;;-147.06;32.12
21594;BME280;10959;51.328;7.322;2023-05-01T11:50:18;72983.44;;;-147.06;31.96
21594;BME280;10959;51.328;7.322;2023-05-01T11:52:48;72975.25;;;-147.06;32.95
21594;BME280;10959;51.328;7.322;2023-05-01T11:55:17;72956.81;;;-147.06;33.36
21594;BME280;10959;51.328;7.322;2023-05-01T11:57:46;72938.38;;;-147.06;33.30
21594;BME280;10959;51.328;7.322;2023-05-01T12:00:13;72930.19;;;-147.06;33.43
21594;BME280;10959;51.328;7.322;2023-05-01T12:02:41;72926.09;;;-147.06;33.66
21594;BME280;10959;51.328;7.322;2023-05-01T12:05:20;72903.56;;;-147.06;33.16
21594;BME280;10959;51.328;7.322;2023-05-01T12:07:47;72895.38;;;-147.06;32.72
21594;BME280;10959;51.328;7.322;2023-05-01T12:10:14;72889.25;;;-147.06;32.66
21594;BME280;10959;51.328;7.322;2023-05-01T12:12:41;72876.94;;;-147.06;32.85
21594;BME280;10959;51.328;7.322;2023-05-01T12:15:10;72872.84;;;-147.06;32.81
21594;BME280;10959;51.328;7.322;2023-05-01T12:17:37;72874.91;;;-147.06;32.92
21594;BME280;10959;51.328;7.322;2023-05-01T12:20:04;72868.75;;;-147.06;32.13
21594;BME280;10959;51.328;7.322;2023-05-01T12:22:31;72872.84;;;-147.06;33.05
21594;BME280;10959;51.328;7.322;2023-05-01T12:24:57;72860.56;;;-147.06;33.46
21594;BME280;10959;51.328;7.322;2023-05-01T12:27:25;72852.38;;;-147.06;32.76
21594;BME280;10959;51.328;7.322;2023-05-01T12:29:52;72852.38;;;-147.06;32.65
21594;BME280;10959;51.328;7.322;2023-05-01T12:32:28;72858.50;;;-147.06;32.37
21594;BME280;10959;51.328;7.322;2023-05-01T12:34:55;72840.09;;;-147.06;32.40
21594;BME280;10959;51.328;7.322;2023-05-01T12:37:21;72836.00;;;-147.06;32.41
21594;BME280;10959;51.328;7.322;2023-05-01T12:39:47;72836.00;;;-147.06;32.74
21594;BME280;10959;51.328;7.322;2023-05-01T12:42:15;72795.03;;;-147.06;33.21
21594;BME280;10959;51.328;7.322;2023-05-01T12:44:43;72770.47;;;-147.06;32.58
21594;BME280;10959;51.328;7.322;2023-05-01T12:47:11;72762.25;;;-147.06;31.78
21594;BME280;10959;51.328;7.322;2023-05-01T12:49:39;72766.34;;;-147.06;30.87
21594;BME280;10959;51.328;7.322;2023-05-01T12:52:06;72784.78;;;-147.06;31.88
21594;BME280;10959;51.328;7.322;2023-05-01T12:54:35;72774.56;;;-147.06;31.46
21594;BME280;10959;51.328;7.322;2023-05-01T12:57:06;72766.34;;;-147.06;32.56
21594;BME280;10959;51.328;7.322;2023-05-01T12:59:35;72737.69;;;-147.06;32.57
21594;BME280;10959;51.328;7.322;2023-05-01T13:02:03;72729.50;;;-147.06;32.09
21594;BME280;10959;51.328;7.322;2023-05-01T13:04:30;72733.59;;;-147.06;32.26
21594;BME280;10959;51.328;7.322;2023-05-01T13:06:58;72721.31;;;-147.06;32.04